sensor_id;sensor_type;location;lat;lon;timestamp;P1;durP1;ratioP1;P2;durP2;ratioP2
35225;SDS011;21813;49.686;21.766;2023-07-31T00:17:06;6.32;;;4.22;;
35225;SDS011;21813;49.686;21.766;2023-07-31T00:19:33;6.85;;;4.05;;
35225;SDS011;21813;49.686;21.766;2023-07-31T00:21:59;6.78;;;4.20;;
35225;SDS011;21813;49.686;21.766;2023-07-31T00:24:27;4.28;;;3.42;;
35225;SDS011;21813;49.686;21.766;2023-07-31T00:26:52;6.10;;;3.90;;
35225;SDS011;21813;49.686;21.766;2023-07-31T00:29:20;8.05;;;5.03;;
35225;SDS011;21813;49.686;21.766;2023-07-31T00:31:45;5.30;;;3.60;;
35225;SDS011;21813;49.686;21.766;2023-07-31T00:34:16;4.35;;;3.95;;
35225;SDS011;21813;49.686;21.766;2023-07-31T00:36:41;7.38;;;3.50;;
35225;SDS011;21813;49.686;21.766;2023-07-31T00:39:09;6.30;;;4.05;;
35225;SDS011;21813;49.686;21.766;2023-07-31T00:41:39;7.15;;;3.70;;
35225;SDS011;21813;49.686;21.766;2023-07-31T00:44:17;3.40;;;3.10;;
35225;SDS011;21813;49.686;21.766;2023-07-31T00:46:43;4.70;;;3.45;;
35225;SDS011;21813;49.686;21.766;2023-07-31T00:49:11;3.33;;;3.08;;
35225;SDS011;21813;49.686;21.766;2023-07-31T00:51:37;10.23;;;3.13;;
35225;SDS011;21813;49.686;21.766;2023-07-31T00:54:04;2.92;;;2.55;;
35225;SDS011;21813;49.686;21.766;2023-07-31T00:56:31;3.47;;;2.75;;
35225;SDS011;21813;49.686;21.766;2023-07-31T00:58:58;3.90;;;3.17;;
35225;SDS011;21813;49.686;21.766;2023-07-31T01:01:23;3.22;;;2.78;;
35225;SDS011;21813;49.686;21.766;2023-07-31T01:03:50;3.03;;;2.72;;
35225;SDS011;21813;49.686;21.766;2023-07-31T01:11:33;3.22;;;2.70;;
35225;SDS011;21813;49.686;21.766;2023-07-31T01:14:05;3.40;;;2.97;;
35225;SDS011;21813;49.686;21.766;2023-07-31T01:16:31;2.88;;;2.67;;
35225;SDS011;21813;49.686;21.766;2023-07-31T01:18:57;3.10;;;2.60;;
35225;SDS011;21813;49.686;21.766;2023-07-31T01:21:30;2.50;;;2.30;;
35225;SDS011;21813;49.686;21.766;2023-07-31T01:27:53;3.17;;;2.78;;
35225;SDS011;21813;49.686;21.766;2023-07-31T01:30:31;3.03;;;2.33;;
35225;SDS011;21813;49.686;21.766;2023-07-31T01:33:02;3.10;;;2.78;;
35225;SDS011;21813;49.686;21.766;2023-07-31T01:35:34;2.83;;;2.40;;
35225;SDS011;21813;49.686;21.766;2023-07-31T01:38:11;2.42;;;2.22;;
35225;SDS011;21813;49.686;21.766;2023-07-31T01:40:45;3.30;;;2.67;;
35225;SDS011;21813;49.686;21.766;2023-07-31T01:43:20;6.28;;;2.47;;
35225;SDS011;21813;49.686;21.766;2023-07-31T01:45:47;5.55;;;2.65;;
35225;SDS011;21813;49.686;21.766;2023-07-31T01:48:23;2.72;;;2.50;;
35225;SDS011;21813;49.686;21.766;2023-07-31T01:50:51;3.25;;;2.95;;
35225;SDS011;21813;49.686;21.766;2023-07-31T01:53:23;4.88;;;2.97;;
35225;SDS011;21813;49.686;21.766;2023-07-31T01:55:53;5.03;;;2.90;;
35225;SDS011;21813;49.686;21.766;2023-07-31T01:58:19;3.42;;;2.60;;
35225;SDS011;21813;49.686;21.766;2023-07-31T02:00:49;4.10;;;3.00;;
35225;SDS011;21813;49.686;21.766;2023-07-31T02:03:21;3.47;;;3.10;;
35225;SDS011;21813;49.686;21.766;2023-07-31T02:05:58;3.28;;;2.97;;
35225;SDS011;21813;49.686;21.766;2023-07-31T02:08:24;3.85;;;3.22;;
35225;SDS011;21813;49.686;21.766;2023-07-31T02:10:57;3.72;;;3.35;;
35225;SDS011;21813;49.686;21.766;2023-07-31T02:13:22;3.97;;;3.13;;
35225;SDS011;21813;49.686;21.766;2023-07-31T02:15:55;3.78;;;3.35;;
35225;SDS011;21813;49.686;21.766;2023-07-31T02:33:18;3.70;;;3.40;;
35225;SDS011;21813;49.686;21.766;2023-07-31T02:35:46;3.90;;;3.50;;
35225;SDS011;21813;49.686;21.766;2023-07-31T02:38:11;6.40;;;3.83;;
35225;SDS011;21813;49.686;21.766;2023-07-31T02:40:39;4.50;;;3.40;;
35225;SDS011;21813;49.686;21.766;2023-07-31T02:43:08;4.60;;;3.53;;
35225;SDS011;21813;49.686;21.766;2023-07-31T02:45:35;4.90;;;3.65;;
35225;SDS011;21813;49.686;21.766;2023-07-31T02:48:01;4.22;;;3.70;;
35225;SDS011;21813;49.686;21.766;2023-07-31T02:50:27;4.03;;;3.60;;
35225;SDS011;21813;49.686;21.766;2023-07-31T02:53:00;4.70;;;3.92;;
35225;SDS011;21813;49.686;21.766;2023-07-31T02:55:27;4.28;;;3.70;;
35225;SDS011;21813;49.686;21.766;2023-07-31T02:57:53;4.50;;;3.28;;
35225;SDS011;21813;49.686;21.766;2023-07-31T03:00:20;5.13;;;3.55;;
35225;SDS011;21813;49.686;21.766;2023-07-31T03:05:44;5.40;;;3.60;;
35225;SDS011;21813;49.686;21.766;2023-07-31T03:08:12;4.53;;;3.72;;
35225;SDS011;21813;49.686;21.766;2023-07-31T03:10:39;4.82;;;3.80;;
35225;SDS011;21813;49.686;21.766;2023-07-31T03:13:11;6.03;;;3.63;;
35225;SDS011;21813;49.686;21.766;2023-07-31T03:15:37;3.63;;;3.10;;
35225;SDS011;21813;49.686;21.766;2023-07-31T03:32:46;4.28;;;3.83;;
35225;SDS011;21813;49.686;21.766;2023-07-31T03:35:13;4.32;;;3.70;;
35225;SDS011;21813;49.686;21.766;2023-07-31T03:37:39;4.00;;;3.60;;
35225;SDS011;21813;49.686;21.766;2023-07-31T03:40:07;9.93;;;4.43;;
35225;SDS011;21813;49.686;21.766;2023-07-31T03:42:33;5.15;;;3.25;;
35225;SDS011;21813;49.686;21.766;2023-07-31T03:45:00;3.90;;;3.20;;
35225;SDS011;21813;49.686;21.766;2023-07-31T03:47:28;4.60;;;3.20;;
35225;SDS011;21813;49.686;21.766;2023-07-31T03:49:54;6.22;;;3.20;;
35225;SDS011;21813;49.686;21.766;2023-07-31T03:52:20;4.80;;;3.30;;
35225;SDS011;21813;49.686;21.766;2023-07-31T03:54:47;3.22;;;2.90;;
35225;SDS011;21813;49.686;21.766;2023-07-31T03:57:13;4.95;;;3.13;;
35225;SDS011;21813;49.686;21.766;2023-07-31T03:59:40;3.15;;;2.60;;
35225;SDS011;21813;49.686;21.766;2023-07-31T04:02:06;6.50;;;3.28;;
35225;SDS011;21813;49.686;21.766;2023-07-31T04:04:33;5.28;;;2.70;;
35225;SDS011;21813;49.686;21.766;2023-07-31T04:06:59;3.03;;;2.72;;
35225;SDS011;21813;49.686;21.766;2023-07-31T04:09:27;5.57;;;3.08;;
35225;SDS011;21813;49.686;21.766;2023-07-31T04:11:52;5.53;;;3.30;;
35225;SDS011;21813;49.686;21.766;2023-07-31T04:14:20;4.65;;;2.95;;
35225;SDS011;21813;49.686;21.766;2023-07-31T04:16:45;5.60;;;2.97;;
35225;SDS011;21813;49.686;21.766;2023-07-31T04:22:00;3.60;;;2.78;;
35225;SDS011;21813;49.686;21.766;2023-07-31T04:53:18;5.95;;;2.45;;
35225;SDS011;21813;49.686;21.766;2023-07-31T04:55:49;3.78;;;2.53;;
35225;SDS011;21813;49.686;21.766;2023-07-31T04:58:15;2.58;;;2.38;;
35225;SDS011;21813;49.686;21.766;2023-07-31T05:00:42;3.55;;;2.75;;
35225;SDS011;21813;49.686;21.766;2023-07-31T05:03:10;3.13;;;2.45;;
35225;SDS011;21813;49.686;21.766;2023-07-31T05:05:38;6.23;;;2.53;;
35225;SDS011;21813;49.686;21.766;2023-07-31T05:08:04;5.60;;;2.58;;
35225;SDS011;21813;49.686;21.766;2023-07-31T05:10:32;4.65;;;3.00;;
35225;SDS011;21813;49.686;21.766;2023-07-31T05:13:05;3.38;;;2.33;;
35225;SDS011;21813;49.686;21.766;2023-07-31T05:15:33;3.72;;;2.20;;
35225;SDS011;21813;49.686;21.766;2023-07-31T05:17:58;5.63;;;2.88;;
35225;SDS011;21813;49.686;21.766;2023-07-31T05:24:31;5.93;;;2.90;;
35225;SDS011;21813;49.686;21.766;2023-07-31T05:27:01;3.85;;;2.60;;
35225;SDS011;21813;49.686;21.766;2023-07-31T05:33:20;3.80;;;2.88;;
35225;SDS011;21813;49.686;21.766;2023-07-31T05:35:57;3.30;;;2.97;;
35225;SDS011;21813;49.686;21.766;2023-07-31T05:38:23;4.25;;;3.40;;
35225;SDS011;21813;49.686;21.766;2023-07-31T05:41:03;5.43;;;4.10;;
35225;SDS011;21813;49.686;21.766;2023-07-31T05:51:16;5.88;;;3.70;;
35225;SDS011;21813;49.686;21.766;2023-07-31T05:54:02;5.60;;;3.95;;
35225;SDS011;21813;49.686;21.766;2023-07-31T05:56:58;5.53;;;3.58;;
35225;SDS011;21813;49.686;21.766;2023-07-31T05:59:44;4.10;;;3.45;;
35225;SDS011;21813;49.686;21.766;2023-07-31T06:02:25;8.50;;;4.10;;
35225;SDS011;21813;49.686;21.766;2023-07-31T06:05:16;3.90;;;3.33;;
35225;SDS011;21813;49.686;21.766;2023-07-31T06:12:05;5.50;;;3.85;;
35225;SDS011;21813;49.686;21.766;2023-07-31T06:15:10;5.45;;;3.83;;
35225;SDS011;21813;49.686;21.766;2023-07-31T06:31:00;5.32;;;3.70;;
35225;SDS011;21813;49.686;21.766;2023-07-31T06:52:20;4.28;;;3.75;;
35225;SDS011;21813;49.686;21.766;2023-07-31T06:54:57;5.25;;;4.28;;
35225;SDS011;21813;49.686;21.766;2023-07-31T06:57:38;5.90;;;4.53;;
35225;SDS011;21813;49.686;21.766;2023-07-31T07:00:19;7.50;;;3.83;;
35225;SDS011;21813;49.686;21.766;2023-07-31T07:03:13;5.82;;;4.20;;
35225;SDS011;21813;49.686;21.766;2023-07-31T07:05:46;4.50;;;3.67;;
35225;SDS011;21813;49.686;21.766;2023-07-31T07:08:13;8.80;;;4.20;;
35225;SDS011;21813;49.686;21.766;2023-07-31T07:10:46;5.22;;;3.30;;
35225;SDS011;21813;49.686;21.766;2023-07-31T07:13:13;3.92;;;3.47;;
35225;SDS011;21813;49.686;21.766;2023-07-31T07:15:39;4.80;;;3.60;;
35225;SDS011;21813;49.686;21.766;2023-07-31T07:18:12;4.55;;;3.20;;
35225;SDS011;21813;49.686;21.766;2023-07-31T07:23:52;3.92;;;3.50;;
35225;SDS011;21813;49.686;21.766;2023-07-31T07:26:18;4.82;;;2.97;;
35225;SDS011;21813;49.686;21.766;2023-07-31T07:28:44;6.38;;;3.53;;
35225;SDS011;21813;49.686;21.766;2023-07-31T07:31:13;4.57;;;3.50;;
35225;SDS011;21813;49.686;21.766;2023-07-31T07:33:48;4.43;;;3.00;;
35225;SDS011;21813;49.686;21.766;2023-07-31T07:36:17;5.70;;;3.85;;
35225;SDS011;21813;49.686;21.766;2023-07-31T07:38:44;4.50;;;3.08;;
35225;SDS011;21813;49.686;21.766;2023-07-31T07:41:09;4.53;;;2.75;;
35225;SDS011;21813;49.686;21.766;2023-07-31T07:43:37;6.10;;;2.70;;
35225;SDS011;21813;49.686;21.766;2023-07-31T07:46:04;4.15;;;2.78;;
35225;SDS011;21813;49.686;21.766;2023-07-31T07:48:31;3.63;;;2.88;;
35225;SDS011;21813;49.686;21.766;2023-07-31T07:51:06;3.13;;;2.80;;
35225;SDS011;21813;49.686;21.766;2023-07-31T07:53:40;3.25;;;2.95;;
35225;SDS011;21813;49.686;21.766;2023-07-31T07:56:05;3.65;;;3.30;;
35225;SDS011;21813;49.686;21.766;2023-07-31T07:58:34;5.35;;;2.95;;
35225;SDS011;21813;49.686;21.766;2023-07-31T08:01:02;3.67;;;3.05;;
35225;SDS011;21813;49.686;21.766;2023-07-31T08:03:33;4.80;;;2.63;;
35225;SDS011;21813;49.686;21.766;2023-07-31T08:06:06;4.65;;;3.10;;
35225;SDS011;21813;49.686;21.766;2023-07-31T08:08:48;3.55;;;3.25;;
35225;SDS011;21813;49.686;21.766;2023-07-31T08:11:14;3.22;;;2.50;;
35225;SDS011;21813;49.686;21.766;2023-07-31T08:13:56;3.22;;;2.92;;
35225;SDS011;21813;49.686;21.766;2023-07-31T08:16:29;3.67;;;3.13;;
35225;SDS011;21813;49.686;21.766;2023-07-31T08:19:12;4.07;;;3.67;;
35225;SDS011;21813;49.686;21.766;2023-07-31T08:21:44;4.40;;;3.75;;
35225;SDS011;21813;49.686;21.766;2023-07-31T08:24:14;4.57;;;3.75;;
35225;SDS011;21813;49.686;21.766;2023-07-31T08:26:40;5.30;;;3.63;;
35225;SDS011;21813;49.686;21.766;2023-07-31T08:29:16;4.85;;;3.90;;
35225;SDS011;21813;49.686;21.766;2023-07-31T08:31:48;4.00;;;3.33;;
35225;SDS011;21813;49.686;21.766;2023-07-31T08:34:23;5.85;;;3.53;;
35225;SDS011;21813;49.686;21.766;2023-07-31T08:36:52;6.07;;;3.85;;
35225;SDS011;21813;49.686;21.766;2023-07-31T08:39:29;4.90;;;3.28;;
35225;SDS011;21813;49.686;21.766;2023-07-31T08:42:03;5.43;;;3.88;;
35225;SDS011;21813;49.686;21.766;2023-07-31T08:44:46;4.65;;;3.90;;
35225;SDS011;21813;49.686;21.766;2023-07-31T08:47:16;3.75;;;3.25;;
35225;SDS011;21813;49.686;21.766;2023-07-31T08:49:55;5.03;;;3.72;;
35225;SDS011;21813;49.686;21.766;2023-07-31T08:52:21;6.53;;;4.00;;
35225;SDS011;21813;49.686;21.766;2023-07-31T08:54:55;4.28;;;3.53;;
35225;SDS011;21813;49.686;21.766;2023-07-31T08:57:21;4.22;;;3.60;;
35225;SDS011;21813;49.686;21.766;2023-07-31T08:59:54;6.47;;;3.92;;
35225;SDS011;21813;49.686;21.766;2023-07-31T09:02:22;6.13;;;3.05;;
35225;SDS011;21813;49.686;21.766;2023-07-31T09:05:05;5.53;;;3.38;;
35225;SDS011;21813;49.686;21.766;2023-07-31T09:07:33;6.50;;;3.92;;
35225;SDS011;21813;49.686;21.766;2023-07-31T09:10:03;4.28;;;3.40;;
35225;SDS011;21813;49.686;21.766;2023-07-31T09:12:30;4.72;;;3.47;;
35225;SDS011;21813;49.686;21.766;2023-07-31T09:14:57;4.55;;;3.72;;
35225;SDS011;21813;49.686;21.766;2023-07-31T09:17:30;3.95;;;3.40;;
35225;SDS011;21813;49.686;21.766;2023-07-31T09:20:16;6.07;;;3.75;;
35225;SDS011;21813;49.686;21.766;2023-07-31T09:22:43;17.77;;;7.18;;
35225;SDS011;21813;49.686;21.766;2023-07-31T09:30:17;4.82;;;3.15;;
35225;SDS011;21813;49.686;21.766;2023-07-31T09:32:44;10.95;;;5.10;;
35225;SDS011;21813;49.686;21.766;2023-07-31T09:35:27;6.38;;;2.83;;
35225;SDS011;21813;49.686;21.766;2023-07-31T09:38:06;5.38;;;3.40;;
35225;SDS011;21813;49.686;21.766;2023-07-31T09:41:11;5.20;;;3.47;;
35225;SDS011;21813;49.686;21.766;2023-07-31T09:44:02;5.60;;;3.65;;
35225;SDS011;21813;49.686;21.766;2023-07-31T09:50:07;4.88;;;3.45;;
35225;SDS011;21813;49.686;21.766;2023-07-31T09:55:07;4.65;;;3.33;;
35225;SDS011;21813;49.686;21.766;2023-07-31T09:57:40;4.55;;;3.70;;
35225;SDS011;21813;49.686;21.766;2023-07-31T10:03:27;14.98;;;6.30;;
35225;SDS011;21813;49.686;21.766;2023-07-31T10:06:05;5.18;;;4.30;;
35225;SDS011;21813;49.686;21.766;2023-07-31T10:11:07;4.25;;;3.60;;
35225;SDS011;21813;49.686;21.766;2023-07-31T10:13:38;3.40;;;2.92;;
35225;SDS011;21813;49.686;21.766;2023-07-31T10:16:07;4.38;;;3.88;;
35225;SDS011;21813;49.686;21.766;2023-07-31T10:18:33;4.70;;;3.80;;
35225;SDS011;21813;49.686;21.766;2023-07-31T10:21:08;5.82;;;3.95;;
35225;SDS011;21813;49.686;21.766;2023-07-31T10:23:35;5.05;;;3.78;;
35225;SDS011;21813;49.686;21.766;2023-07-31T10:26:04;7.97;;;3.97;;
35225;SDS011;21813;49.686;21.766;2023-07-31T10:28:33;5.60;;;4.07;;
35225;SDS011;21813;49.686;21.766;2023-07-31T10:31:02;5.55;;;3.72;;
35225;SDS011;21813;49.686;21.766;2023-07-31T10:33:29;7.15;;;4.00;;
35225;SDS011;21813;49.686;21.766;2023-07-31T10:39:00;4.70;;;3.58;;
35225;SDS011;21813;49.686;21.766;2023-07-31T10:41:34;6.70;;;3.33;;
35225;SDS011;21813;49.686;21.766;2023-07-31T10:44:04;8.10;;;3.30;;
35225;SDS011;21813;49.686;21.766;2023-07-31T10:46:54;3.35;;;3.05;;
35225;SDS011;21813;49.686;21.766;2023-07-31T10:49:34;5.38;;;3.45;;
35225;SDS011;21813;49.686;21.766;2023-07-31T10:52:03;4.13;;;3.15;;
35225;SDS011;21813;49.686;21.766;2023-07-31T10:55:28;3.20;;;2.85;;
35225;SDS011;21813;49.686;21.766;2023-07-31T10:57:56;5.70;;;2.85;;
35225;SDS011;21813;49.686;21.766;2023-07-31T11:03:13;3.50;;;3.15;;
35225;SDS011;21813;49.686;21.766;2023-07-31T11:19:21;5.40;;;2.83;;
35225;SDS011;21813;49.686;21.766;2023-07-31T11:22:04;4.05;;;2.88;;
35225;SDS011;21813;49.686;21.766;2023-07-31T11:24:30;4.95;;;2.40;;
35225;SDS011;21813;49.686;21.766;2023-07-31T11:27:07;3.55;;;2.58;;
35225;SDS011;21813;49.686;21.766;2023-07-31T11:29:33;5.38;;;2.72;;
35225;SDS011;21813;49.686;21.766;2023-07-31T11:32:00;3.20;;;2.58;;
35225;SDS011;21813;49.686;21.766;2023-07-31T11:34:29;2.67;;;2.20;;
35225;SDS011;21813;49.686;21.766;2023-07-31T11:37:15;5.90;;;3.10;;
35225;SDS011;21813;49.686;21.766;2023-07-31T11:39:41;4.28;;;2.22;;
35225;SDS011;21813;49.686;21.766;2023-07-31T11:44:54;3.65;;;1.90;;
35225;SDS011;21813;49.686;21.766;2023-07-31T11:47:28;2.95;;;2.55;;
35225;SDS011;21813;49.686;21.766;2023-07-31T11:50:06;3.55;;;2.22;;
35225;SDS011;21813;49.686;21.766;2023-07-31T11:52:41;5.93;;;3.53;;
35225;SDS011;21813;49.686;21.766;2023-07-31T11:58:10;2.67;;;2.17;;
35225;SDS011;21813;49.686;21.766;2023-07-31T12:01:13;3.00;;;2.03;;
35225;SDS011;21813;49.686;21.766;2023-07-31T12:06:35;4.57;;;2.47;;
35225;SDS011;21813;49.686;21.766;2023-07-31T12:22:10;2.40;;;2.05;;
35225;SDS011;21813;49.686;21.766;2023-07-31T12:24:37;2.30;;;2.10;;
35225;SDS011;21813;49.686;21.766;2023-07-31T12:27:16;2.42;;;2.22;;
35225;SDS011;21813;49.686;21.766;2023-07-31T12:29:49;8.75;;;2.63;;
35225;SDS011;21813;49.686;21.766;2023-07-31T12:32:23;3.28;;;2.22;;
35225;SDS011;21813;49.686;21.766;2023-07-31T12:35:07;4.00;;;2.08;;
35225;SDS011;21813;49.686;21.766;2023-07-31T12:38:01;3.03;;;1.92;;
35225;SDS011;21813;49.686;21.766;2023-07-31T12:40:42;4.35;;;2.17;;
35225;SDS011;21813;49.686;21.766;2023-07-31T12:43:15;5.20;;;2.05;;
35225;SDS011;21813;49.686;21.766;2023-07-31T12:45:55;2.85;;;2.20;;
35225;SDS011;21813;49.686;21.766;2023-07-31T12:48:47;4.13;;;2.17;;
35225;SDS011;21813;49.686;21.766;2023-07-31T12:51:19;3.38;;;1.55;;
35225;SDS011;21813;49.686;21.766;2023-07-31T12:54:03;2.65;;;1.48;;
35225;SDS011;21813;49.686;21.766;2023-07-31T12:56:45;2.42;;;1.80;;
35225;SDS011;21813;49.686;21.766;2023-07-31T12:59:13;2.75;;;1.80;;
35225;SDS011;21813;49.686;21.766;2023-07-31T13:01:43;3.03;;;1.77;;
35225;SDS011;21813;49.686;21.766;2023-07-31T13:04:20;4.63;;;2.10;;
35225;SDS011;21813;49.686;21.766;2023-07-31T13:07:00;2.00;;;1.80;;
35225;SDS011;21813;49.686;21.766;2023-07-31T13:09:52;2.65;;;2.00;;
35225;SDS011;21813;49.686;21.766;2023-07-31T13:12:32;5.30;;;2.47;;
35225;SDS011;21813;49.686;21.766;2023-07-31T13:15:05;2.83;;;2.20;;
35225;SDS011;21813;49.686;21.766;2023-07-31T13:35:55;2.28;;;2.08;;
35225;SDS011;21813;49.686;21.766;2023-07-31T13:38:21;2.50;;;2.28;;
35225;SDS011;21813;49.686;21.766;2023-07-31T13:40:54;15.10;;;2.10;;
35225;SDS011;21813;49.686;21.766;2023-07-31T13:46:15;2.40;;;1.50;;
35225;SDS011;21813;49.686;21.766;2023-07-31T13:49:32;3.58;;;1.90;;
35225;SDS011;21813;49.686;21.766;2023-07-31T13:52:08;1.90;;;1.55;;
35225;SDS011;21813;49.686;21.766;2023-07-31T13:54:47;1.60;;;1.20;;
35225;SDS011;21813;49.686;21.766;2023-07-31T13:57:43;1.70;;;1.42;;
35225;SDS011;21813;49.686;21.766;2023-07-31T14:00:42;2.35;;;1.90;;
35225;SDS011;21813;49.686;21.766;2023-07-31T14:05:51;1.92;;;1.73;;
35225;SDS011;21813;49.686;21.766;2023-07-31T14:08:19;2.45;;;2.25;;
35225;SDS011;21813;49.686;21.766;2023-07-31T14:10:44;5.40;;;1.75;;
35225;SDS011;21813;49.686;21.766;2023-07-31T14:13:10;2.78;;;2.05;;
35225;SDS011;21813;49.686;21.766;2023-07-31T14:15:36;3.88;;;1.83;;
35225;SDS011;21813;49.686;21.766;2023-07-31T14:25:50;2.78;;;1.85;;
35225;SDS011;21813;49.686;21.766;2023-07-31T14:30:58;3.80;;;2.15;;
35225;SDS011;21813;49.686;21.766;2023-07-31T14:33:32;3.53;;;1.55;;
35225;SDS011;21813;49.686;21.766;2023-07-31T14:36:03;1.83;;;1.60;;
35225;SDS011;21813;49.686;21.766;2023-07-31T14:39:14;2.42;;;1.70;;
35225;SDS011;21813;49.686;21.766;2023-07-31T14:45:18;2.72;;;1.65;;
35225;SDS011;21813;49.686;21.766;2023-07-31T14:47:44;3.13;;;1.98;;
35225;SDS011;21813;49.686;21.766;2023-07-31T14:58:16;1.70;;;1.60;;
35225;SDS011;21813;49.686;21.766;2023-07-31T15:03:29;5.18;;;2.13;;
35225;SDS011;21813;49.686;21.766;2023-07-31T15:06:13;2.42;;;1.77;;
35225;SDS011;21813;49.686;21.766;2023-07-31T15:08:44;3.70;;;1.70;;
35225;SDS011;21813;49.686;21.766;2023-07-31T15:14:54;1.42;;;1.23;;
35225;SDS011;21813;49.686;21.766;2023-07-31T15:17:25;2.17;;;1.88;;
35225;SDS011;21813;49.686;21.766;2023-07-31T15:19:55;2.88;;;1.77;;
35225;SDS011;21813;49.686;21.766;2023-07-31T15:25:11;5.57;;;2.25;;
35225;SDS011;21813;49.686;21.766;2023-07-31T15:27:56;2.25;;;1.83;;
35225;SDS011;21813;49.686;21.766;2023-07-31T15:30:42;2.95;;;2.03;;
35225;SDS011;21813;49.686;21.766;2023-07-31T15:33:33;3.65;;;1.83;;
35225;SDS011;21813;49.686;21.766;2023-07-31T15:36:40;2.97;;;1.55;;
35225;SDS011;21813;49.686;21.766;2023-07-31T16:19:05;2.63;;;1.92;;
35225;SDS011;21813;49.686;21.766;2023-07-31T16:46:05;2.97;;;2.05;;
35225;SDS011;21813;49.686;21.766;2023-07-31T16:48:42;4.43;;;1.98;;
35225;SDS011;21813;49.686;21.766;2023-07-31T16:51:09;4.47;;;2.03;;
35225;SDS011;21813;49.686;21.766;2023-07-31T16:53:43;6.05;;;2.70;;
35225;SDS011;21813;49.686;21.766;2023-07-31T17:02:23;3.00;;;1.98;;
35225;SDS011;21813;49.686;21.766;2023-07-31T17:04:54;4.38;;;1.98;;
35225;SDS011;21813;49.686;21.766;2023-07-31T17:11:00;4.55;;;1.98;;
35225;SDS011;21813;49.686;21.766;2023-07-31T17:17:12;4.38;;;2.70;;
35225;SDS011;21813;49.686;21.766;2023-07-31T17:19:47;8.25;;;2.63;;
35225;SDS011;21813;49.686;21.766;2023-07-31T17:22:16;5.78;;;2.55;;
35225;SDS011;21813;49.686;21.766;2023-07-31T17:24:50;4.72;;;2.30;;
35225;SDS011;21813;49.686;21.766;2023-07-31T17:27:17;7.60;;;2.42;;
35225;SDS011;21813;49.686;21.766;2023-07-31T17:30:10;5.00;;;2.88;;
35225;SDS011;21813;49.686;21.766;2023-07-31T17:32:36;5.57;;;2.85;;
35225;SDS011;21813;49.686;21.766;2023-07-31T17:35:04;3.20;;;2.33;;
35225;SDS011;21813;49.686;21.766;2023-07-31T17:37:30;4.00;;;2.53;;
35225;SDS011;21813;49.686;21.766;2023-07-31T17:40:03;4.30;;;3.13;;
35225;SDS011;21813;49.686;21.766;2023-07-31T17:42:30;6.40;;;2.55;;
35225;SDS011;21813;49.686;21.766;2023-07-31T17:45:17;4.22;;;2.67;;
35225;SDS011;21813;49.686;21.766;2023-07-31T17:47:46;3.65;;;2.50;;
35225;SDS011;21813;49.686;21.766;2023-07-31T17:53:48;3.85;;;3.30;;
35225;SDS011;21813;49.686;21.766;2023-07-31T17:56:30;5.40;;;2.75;;
35225;SDS011;21813;49.686;21.766;2023-07-31T18:14:24;3.83;;;2.88;;
35225;SDS011;21813;49.686;21.766;2023-07-31T18:17:06;8.07;;;3.30;;
35225;SDS011;21813;49.686;21.766;2023-07-31T18:22:18;5.78;;;3.38;;
35225;SDS011;21813;49.686;21.766;2023-07-31T18:24:57;6.55;;;2.90;;
35225;SDS011;21813;49.686;21.766;2023-07-31T18:27:44;7.35;;;3.55;;
35225;SDS011;21813;49.686;21.766;2023-07-31T18:30:15;9.70;;;3.90;;
35225;SDS011;21813;49.686;21.766;2023-07-31T18:32:41;8.50;;;3.35;;
35225;SDS011;21813;49.686;21.766;2023-07-31T18:35:06;11.68;;;4.65;;
35225;SDS011;21813;49.686;21.766;2023-07-31T18:40:25;8.10;;;4.00;;
35225;SDS011;21813;49.686;21.766;2023-07-31T18:42:51;10.07;;;4.75;;
35225;SDS011;21813;49.686;21.766;2023-07-31T18:48:27;6.80;;;4.80;;
35225;SDS011;21813;49.686;21.766;2023-07-31T18:51:05;10.43;;;5.78;;
35225;SDS011;21813;49.686;21.766;2023-07-31T18:53:30;9.07;;;5.57;;
35225;SDS011;21813;49.686;21.766;2023-07-31T18:55:57;10.60;;;5.28;;
35225;SDS011;21813;49.686;21.766;2023-07-31T18:58:23;12.05;;;5.32;;
35225;SDS011;21813;49.686;21.766;2023-07-31T19:01:02;12.27;;;5.78;;
35225;SDS011;21813;49.686;21.766;2023-07-31T19:06:41;12.20;;;5.90;;
35225;SDS011;21813;49.686;21.766;2023-07-31T19:09:09;10.05;;;5.72;;
35225;SDS011;21813;49.686;21.766;2023-07-31T19:11:38;13.40;;;5.38;;
35225;SDS011;21813;49.686;21.766;2023-07-31T19:14:31;11.68;;;6.07;;
35225;SDS011;21813;49.686;21.766;2023-07-31T19:16:58;11.18;;;6.35;;
35225;SDS011;21813;49.686;21.766;2023-07-31T19:22:38;13.95;;;6.68;;
35225;SDS011;21813;49.686;21.766;2023-07-31T19:25:13;13.85;;;6.07;;
35225;SDS011;21813;49.686;21.766;2023-07-31T19:27:40;8.43;;;6.18;;
35225;SDS011;21813;49.686;21.766;2023-07-31T19:30:06;9.68;;;5.85;;
35225;SDS011;21813;49.686;21.766;2023-07-31T19:32:34;14.23;;;6.47;;
35225;SDS011;21813;49.686;21.766;2023-07-31T19:35:00;10.45;;;5.75;;
35225;SDS011;21813;49.686;21.766;2023-07-31T19:37:26;9.10;;;6.20;;
35225;SDS011;21813;49.686;21.766;2023-07-31T19:39:51;14.55;;;6.78;;
35225;SDS011;21813;49.686;21.766;2023-07-31T19:42:20;9.85;;;6.60;;
35225;SDS011;21813;49.686;21.766;2023-07-31T19:44:46;14.38;;;8.43;;
35225;SDS011;21813;49.686;21.766;2023-07-31T19:47:34;16.45;;;9.27;;
35225;SDS011;21813;49.686;21.766;2023-07-31T19:49:59;14.98;;;9.55;;
35225;SDS011;21813;49.686;21.766;2023-07-31T19:52:27;17.65;;;10.55;;
35225;SDS011;21813;49.686;21.766;2023-07-31T19:54:53;18.05;;;10.48;;
35225;SDS011;21813;49.686;21.766;2023-07-31T19:57:19;18.35;;;9.90;;
35225;SDS011;21813;49.686;21.766;2023-07-31T19:59:56;20.58;;;10.50;;
35225;SDS011;21813;49.686;21.766;2023-07-31T20:02:26;21.52;;;11.15;;
35225;SDS011;21813;49.686;21.766;2023-07-31T20:04:51;17.92;;;10.57;;
35225;SDS011;21813;49.686;21.766;2023-07-31T20:07:18;20.20;;;10.82;;
35225;SDS011;21813;49.686;21.766;2023-07-31T20:09:43;19.40;;;11.15;;
35225;SDS011;21813;49.686;21.766;2023-07-31T20:12:11;16.77;;;11.10;;
35225;SDS011;21813;49.686;21.766;2023-07-31T20:14:37;21.17;;;11.48;;
35225;SDS011;21813;49.686;21.766;2023-07-31T20:17:04;19.42;;;13.15;;
35225;SDS011;21813;49.686;21.766;2023-07-31T20:19:30;21.67;;;13.85;;
35225;SDS011;21813;49.686;21.766;2023-07-31T20:21:57;23.38;;;14.57;;
35225;SDS011;21813;49.686;21.766;2023-07-31T20:24:23;20.98;;;13.55;;
35225;SDS011;21813;49.686;21.766;2023-07-31T20:26:50;25.23;;;14.70;;
35225;SDS011;21813;49.686;21.766;2023-07-31T20:29:16;24.83;;;15.25;;
35225;SDS011;21813;49.686;21.766;2023-07-31T20:31:48;26.80;;;15.00;;
35225;SDS011;21813;49.686;21.766;2023-07-31T20:34:14;25.00;;;13.68;;
35225;SDS011;21813;49.686;21.766;2023-07-31T20:36:41;28.90;;;14.48;;
35225;SDS011;21813;49.686;21.766;2023-07-31T20:39:06;22.17;;;13.70;;
35225;SDS011;21813;49.686;21.766;2023-07-31T20:41:34;26.10;;;14.55;;
35225;SDS011;21813;49.686;21.766;2023-07-31T20:44:00;23.60;;;13.02;;
35225;SDS011;21813;49.686;21.766;2023-07-31T20:46:27;21.60;;;13.73;;
35225;SDS011;21813;49.686;21.766;2023-07-31T20:48:52;26.02;;;15.05;;
35225;SDS011;21813;49.686;21.766;2023-07-31T20:51:20;23.88;;;14.23;;
35225;SDS011;21813;49.686;21.766;2023-07-31T20:53:46;26.08;;;14.10;;
35225;SDS011;21813;49.686;21.766;2023-07-31T20:56:13;23.02;;;14.27;;
35225;SDS011;21813;49.686;21.766;2023-07-31T20:58:38;19.13;;;12.30;;
35225;SDS011;21813;49.686;21.766;2023-07-31T21:01:07;22.58;;;12.77;;
35225;SDS011;21813;49.686;21.766;2023-07-31T21:03:33;24.38;;;13.63;;
35225;SDS011;21813;49.686;21.766;2023-07-31T21:06:00;20.85;;;12.32;;
35225;SDS011;21813;49.686;21.766;2023-07-31T21:08:26;20.48;;;12.68;;